createdAt,value
2022-12-31T00:01:28.207Z,75.48
2022-12-31T00:03:55.318Z,76.48
2022-12-31T00:06:30.594Z,76.35
2022-12-31T00:08:59.171Z,76.46
2022-12-31T00:11:27.032Z,77.03
2022-12-31T00:13:53.838Z,77.07
2022-12-31T00:16:33.328Z,77.21
2022-12-31T00:19:00.534Z,77.79
2022-12-31T00:21:32.923Z,77.25
2022-12-31T00:23:59.886Z,77.84
2022-12-31T00:26:31.015Z,76.64
2022-12-31T00:28:59.021Z,78.16
2022-12-31T00:31:33.878Z,77.35
2022-12-31T00:34:00.665Z,78.55
2022-12-31T00:36:30.161Z,77.51
2022-12-31T00:38:58.287Z,76.24
2022-12-31T00:41:26.072Z,76.41
2022-12-31T00:43:53.021Z,76.80
2022-12-31T00:46:20.153Z,76.33
2022-12-31T00:48:46.987Z,76.19
2022-12-31T00:51:16.310Z,74.43
2022-12-31T00:53:43.512Z,74.30
2022-12-31T00:56:13.114Z,74.40
2022-12-31T00:58:39.989Z,73.78
2022-12-31T01:01:18.222Z,73.96
2022-12-31T01:03:45.721Z,73.91
2022-12-31T01:06:12.786Z,72.75
2022-12-31T01:08:39.295Z,72.88
2022-12-31T01:11:24.599Z,72.83
2022-12-31T01:14:04.236Z,72.80
2022-12-31T01:16:42.343Z,72.71
2022-12-31T01:19:15.249Z,72.09
2022-12-31T01:21:43.034Z,73.01
2022-12-31T01:24:11.553Z,73.07
2022-12-31T01:26:38.690Z,73.04
2022-12-31T01:29:06.689Z,72.41
2022-12-31T01:31:34.371Z,72.55
2022-12-31T01:34:01.363Z,72.93
2022-12-31T01:36:29.920Z,73.15
2022-12-31T01:38:58.577Z,73.64
2022-12-31T01:41:29.974Z,73.35
2022-12-31T01:44:01.840Z,73.29
2022-12-31T01:46:39.821Z,72.93
2022-12-31T01:49:23.984Z,72.87
2022-12-31T01:52:02.191Z,72.38
2022-12-31T01:54:32.389Z,72.22
2022-12-31T01:56:59.266Z,71.67
2022-12-31T01:59:29.148Z,72.43
2022-12-31T02:01:56.204Z,72.34
2022-12-31T02:04:24.873Z,72.67
2022-12-31T02:06:56.065Z,72.75
2022-12-31T02:09:22.868Z,72.84
2022-12-31T02:11:49.389Z,72.01
2022-12-31T02:14:21.058Z,72.07
2022-12-31T02:16:56.735Z,72.66
2022-12-31T02:19:47.695Z,73.22
2022-12-31T02:22:56.321Z,72.75
2022-12-31T02:25:37.936Z,73.60
2022-12-31T02:28:19.772Z,72.92
2022-12-31T02:30:51.655Z,73.01
2022-12-31T02:33:25.872Z,72.34
2022-12-31T02:36:06.379Z,72.50
2022-12-31T02:38:38.439Z,72.68
2022-12-31T02:41:05.013Z,72.28
2022-12-31T02:43:31.524Z,72.87
2022-12-31T02:46:12.113Z,72.99
2022-12-31T02:49:16.067Z,72.89
2022-12-31T02:52:10.040Z,73.16
2022-12-31T02:55:13.993Z,73.16
2022-12-31T02:57:46.908Z,72.97
2022-12-31T03:00:35.069Z,73.19
2022-12-31T03:03:03.660Z,72.76
2022-12-31T03:05:37.441Z,72.78
2022-12-31T03:08:04.025Z,72.41
2022-12-31T03:10:30.553Z,72.86
2022-12-31T03:12:57.304Z,73.07
2022-12-31T03:15:27.147Z,72.86
2022-12-31T03:18:02.550Z,73.09
2022-12-31T03:20:52.249Z,73.89
2022-12-31T03:24:06.936Z,74.78
2022-12-31T03:26:33.436Z,75.78
2022-12-31T03:28:59.927Z,75.92
2022-12-31T03:31:27.959Z,76.30
2022-12-31T03:33:54.452Z,77.27
2022-12-31T03:36:20.969Z,77.10
2022-12-31T03:38:51.231Z,77.73
2022-12-31T03:41:19.315Z,77.22
2022-12-31T03:43:45.867Z,77.92
2022-12-31T03:46:12.408Z,77.45
2022-12-31T03:48:39.926Z,77.32
2022-12-31T03:51:06.417Z,77.54
2022-12-31T03:53:34.752Z,77.46
2022-12-31T03:56:01.266Z,76.48
2022-12-31T03:58:27.785Z,76.15
2022-12-31T04:00:54.343Z,76.58
2022-12-31T04:03:20.946Z,75.97
2022-12-31T04:05:55.611Z,76.14
2022-12-31T04:08:22.196Z,75.21
2022-12-31T04:10:49.274Z,75.33
2022-12-31T04:13:15.789Z,74.31
2022-12-31T04:15:42.300Z,74.55
2022-12-31T04:18:08.824Z,74.89
2022-12-31T04:20:35.327Z,74.61
2022-12-31T04:23:01.831Z,74.10
2022-12-31T04:25:28.331Z,74.38
2022-12-31T04:27:54.872Z,74.56
2022-12-31T04:30:21.417Z,73.66
2022-12-31T04:32:47.914Z,73.08
2022-12-31T04:35:14.437Z,73.34
2022-12-31T04:37:40.940Z,73.35
2022-12-31T04:40:08.397Z,74.20
2022-12-31T04:42:36.253Z,72.96
2022-12-31T04:45:03.994Z,73.08
2022-12-31T04:47:30.607Z,73.04
2022-12-31T04:49:57.101Z,73.14
2022-12-31T04:52:23.664Z,72.86
2022-12-31T04:54:50.176Z,72.56
2022-12-31T04:57:16.705Z,73.10
2022-12-31T04:59:43.240Z,73.13
2022-12-31T05:02:09.954Z,73.06
2022-12-31T05:04:36.614Z,71.46
2022-12-31T05:07:03.180Z,72.35
2022-12-31T05:09:30.962Z,72.48
2022-12-31T05:11:57.629Z,71.54
2022-12-31T05:14:24.380Z,70.70
2022-12-31T05:16:51.116Z,72.21
2022-12-31T05:19:17.735Z,72.43
2022-12-31T05:22:04.276Z,72.30
2022-12-31T05:24:31.533Z,71.58
2022-12-31T05:26:58.043Z,71.43
2022-12-31T05:29:24.556Z,70.84
2022-12-31T05:31:52.234Z,70.01
2022-12-31T05:34:18.806Z,70.09
2022-12-31T05:36:45.327Z,70.78
2022-12-31T05:39:12.045Z,70.34
2022-12-31T05:41:38.547Z,71.01
2022-12-31T05:44:05.059Z,71.00
2022-12-31T05:46:31.599Z,69.89
2022-12-31T05:48:58.106Z,70.25
2022-12-31T05:51:24.605Z,70.64
2022-12-31T05:53:51.093Z,70.91
2022-12-31T05:56:17.829Z,70.75
2022-12-31T05:58:44.347Z,69.34
2022-12-31T06:01:10.867Z,69.75
2022-12-31T06:03:37.388Z,69.88
2022-12-31T06:06:05.310Z,70.09
2022-12-31T06:08:31.853Z,70.47
2022-12-31T06:10:58.472Z,69.58
2022-12-31T06:13:25.002Z,68.82
2022-12-31T06:15:51.567Z,69.92
2022-12-31T06:18:18.069Z,69.41
2022-12-31T06:20:44.577Z,69.21
2022-12-31T06:23:11.356Z,70.47
2022-12-31T06:25:37.874Z,70.31
2022-12-31T06:28:05.492Z,70.52
2022-12-31T06:30:32.487Z,70.74
2022-12-31T06:32:58.979Z,70.16
2022-12-31T06:35:25.518Z,69.44
2022-12-31T06:37:52.252Z,67.91
2022-12-31T06:40:18.746Z,69.06
2022-12-31T06:42:45.257Z,68.78
2022-12-31T06:45:11.790Z,69.47
2022-12-31T06:47:38.377Z,69.87
2022-12-31T06:50:05.384Z,69.56
2022-12-31T06:52:31.866Z,69.36
2022-12-31T06:54:58.971Z,69.09
2022-12-31T06:57:25.767Z,69.36
2022-12-31T06:59:52.603Z,67.91
2022-12-31T07:02:44.853Z,67.63
2022-12-31T07:05:30.010Z,68.97
2022-12-31T07:08:21.664Z,69.63
2022-12-31T07:11:05.963Z,70.40
2022-12-31T07:13:57.331Z,68.82
2022-12-31T07:16:40.335Z,69.09
2022-12-31T07:19:09.808Z,68.93
2022-12-31T07:21:41.125Z,68.78
2022-12-31T07:24:10.057Z,70.11
2022-12-31T07:27:06.391Z,69.68
2022-12-31T07:30:03.919Z,70.14
2022-12-31T07:33:03.994Z,70.23
2022-12-31T07:35:48.559Z,68.57
2022-12-31T07:38:32.790Z,68.35
2022-12-31T07:41:09.353Z,67.17
2022-12-31T07:43:42.800Z,67.55
2022-12-31T07:46:35.778Z,65.76
2022-12-31T07:49:03.867Z,65.91
2022-12-31T07:51:30.498Z,66.17
2022-12-31T07:53:57.027Z,64.74
2022-12-31T07:56:23.585Z,65.48
2022-12-31T07:59:05.219Z,67.30
2022-12-31T08:01:40.771Z,67.13
2022-12-31T08:04:18.083Z,66.22
2022-12-31T08:06:59.332Z,64.79
2022-12-31T08:09:36.517Z,65.27
2022-12-31T08:12:03.916Z,64.89
2022-12-31T08:14:30.993Z,64.43
2022-12-31T08:16:58.038Z,64.58
2022-12-31T08:19:25.837Z,64.38
2022-12-31T08:22:25.776Z,63.92
2022-12-31T08:25:11.142Z,63.45
2022-12-31T08:27:43.235Z,63.21
2022-12-31T08:30:19.027Z,61.59
2022-12-31T08:33:11.218Z,61.48
2022-12-31T08:35:59.017Z,61.71
2022-12-31T08:38:43.280Z,61.21
2022-12-31T08:41:28.047Z,61.07
2022-12-31T08:44:10.351Z,63.06
2022-12-31T08:46:59.739Z,63.55
2022-12-31T08:49:28.049Z,60.92
2022-12-31T08:51:54.904Z,63.02
2022-12-31T08:54:21.686Z,61.19
2022-12-31T08:56:53.384Z,61.09
2022-12-31T08:59:25.694Z,61.04
2022-12-31T09:02:07.501Z,59.35
2022-12-31T09:05:01.831Z,60.31
2022-12-31T09:07:40.345Z,58.94
2022-12-31T09:10:20.676Z,60.61
2022-12-31T09:12:54.758Z,58.00
2022-12-31T09:15:27.069Z,58.19
2022-12-31T09:17:53.808Z,58.48
2022-12-31T09:20:41.807Z,57.61
2022-12-31T09:23:10.276Z,57.93
2022-12-31T09:25:45.426Z,57.43
2022-12-31T09:28:17.858Z,57.47
2022-12-31T09:31:14.740Z,56.84
2022-12-31T09:34:06.712Z,56.11
2022-12-31T09:36:48.143Z,55.55
2022-12-31T09:39:43.114Z,55.99
2022-12-31T09:42:26.611Z,55.08
2022-12-31T09:45:09.545Z,55.64
2022-12-31T09:48:11.193Z,54.97
2022-12-31T09:50:52.644Z,55.84
2022-12-31T09:53:24.994Z,55.98
2022-12-31T09:56:10.145Z,55.77
2022-12-31T09:58:46.533Z,56.73
2022-12-31T10:01:19.098Z,55.35
2022-12-31T10:04:30.204Z,56.85
2022-12-31T10:07:15.320Z,55.92
2022-12-31T10:10:09.270Z,54.34
2022-12-31T10:12:59.133Z,55.05
2022-12-31T10:15:40.253Z,54.55
2022-12-31T10:18:23.215Z,54.10
2022-12-31T10:21:04.271Z,52.61
2022-12-31T10:24:10.076Z,53.15
2022-12-31T10:27:05.008Z,53.23
2022-12-31T10:29:59.181Z,52.68
2022-12-31T10:32:34.795Z,52.58
2022-12-31T10:35:18.354Z,52.39
2022-12-31T10:38:06.447Z,51.91
2022-12-31T10:40:54.455Z,51.50
2022-12-31T10:43:55.433Z,52.60
2022-12-31T10:46:27.864Z,52.05
2022-12-31T10:49:22.214Z,51.51
2022-12-31T10:52:10.397Z,51.92
2022-12-31T10:55:33.702Z,51.99
2022-12-31T10:58:15.197Z,51.37
2022-12-31T11:00:53.420Z,50.45
2022-12-31T11:04:13.477Z,51.24
2022-12-31T11:07:21.435Z,50.12
2022-12-31T11:10:09.607Z,50.39
2022-12-31T11:12:46.935Z,50.10
2022-12-31T11:15:22.441Z,49.83
2022-12-31T11:18:12.997Z,49.82
2022-12-31T11:21:00.241Z,49.87
2022-12-31T11:23:36.208Z,51.41
2022-12-31T11:26:21.804Z,51.95
2022-12-31T11:28:57.286Z,49.20
2022-12-31T11:31:39.063Z,48.01
2022-12-31T11:34:27.438Z,49.58
2022-12-31T11:37:18.163Z,50.98
2022-12-31T11:39:56.771Z,49.22
2022-12-31T11:42:45.975Z,50.30
2022-12-31T11:45:18.333Z,49.55
2022-12-31T11:48:29.250Z,49.63
2022-12-31T11:51:06.156Z,48.41
2022-12-31T11:53:46.302Z,49.97
2022-12-31T11:56:18.397Z,48.81
2022-12-31T11:58:56.052Z,50.85
2022-12-31T12:01:52.149Z,51.05
2022-12-31T12:04:18.691Z,50.27
2022-12-31T12:06:46.005Z,48.02
2022-12-31T12:09:22.026Z,47.98
2022-12-31T12:11:59.365Z,49.36
2022-12-31T12:14:40.891Z,47.84
2022-12-31T12:17:08.474Z,48.51
2022-12-31T12:19:41.893Z,50.69
2022-12-31T12:22:22.249Z,50.56
2022-12-31T12:25:04.634Z,51.63
2022-12-31T12:27:34.532Z,51.51
2022-12-31T12:30:30.323Z,50.01
2022-12-31T12:33:00.255Z,49.28
2022-12-31T12:35:32.531Z,49.85
2022-12-31T12:38:07.726Z,47.92
2022-12-31T12:40:35.285Z,48.25
2022-12-31T12:43:02.950Z,49.92
2022-12-31T12:45:41.651Z,50.13
2022-12-31T12:48:18.923Z,51.55
2022-12-31T12:50:48.910Z,53.40
2022-12-31T12:53:37.173Z,51.46
2022-12-31T12:56:18.817Z,52.82
2022-12-31T12:59:12.195Z,53.00
2022-12-31T13:01:42.623Z,53.46
2022-12-31T13:04:34.104Z,51.31
2022-12-31T13:07:19.353Z,54.73
2022-12-31T13:09:57.930Z,50.13
2022-12-31T13:15:46.234Z,52.15
2022-12-31T13:18:36.867Z,51.13
2022-12-31T13:21:09.862Z,51.47
2022-12-31T13:23:43.481Z,52.43
2022-12-31T13:26:28.267Z,52.97
2022-12-31T13:28:56.538Z,52.50
2022-12-31T13:31:30.174Z,54.29
2022-12-31T13:34:03.100Z,55.94
2022-12-31T13:36:32.715Z,53.11
2022-12-31T13:39:02.600Z,54.39
2022-12-31T13:42:06.707Z,54.98
2022-12-31T13:44:39.546Z,55.50
2022-12-31T13:47:13.667Z,55.73
2022-12-31T13:49:44.332Z,55.19
2022-12-31T13:52:42.727Z,55.65
2022-12-31T13:55:32.139Z,57.27
2022-12-31T13:58:17.744Z,55.11
2022-12-31T14:00:50.199Z,56.44
2022-12-31T14:03:27.333Z,57.19
2022-12-31T14:06:08.212Z,58.02
2022-12-31T14:08:34.748Z,58.18
2022-12-31T14:11:19.975Z,57.80
2022-12-31T14:14:15.167Z,59.49
2022-12-31T14:16:49.295Z,60.11
2022-12-31T14:19:21.365Z,59.73
2022-12-31T14:22:15.108Z,60.28
2022-12-31T14:24:50.568Z,60.45
2022-12-31T14:27:29.726Z,60.34
2022-12-31T14:30:01.576Z,60.86
2022-12-31T14:32:55.060Z,61.77
2022-12-31T14:35:46.899Z,61.73
2022-12-31T14:38:35.372Z,62.78
2022-12-31T14:41:53.244Z,61.92
2022-12-31T14:44:40.982Z,62.83
2022-12-31T14:47:21.022Z,62.84
2022-12-31T14:50:11.527Z,63.18
2022-12-31T14:53:04.369Z,63.45
2022-12-31T14:55:34.002Z,63.58
2022-12-31T14:58:27.313Z,63.15
2022-12-31T15:00:55.888Z,63.59
2022-12-31T15:03:31.516Z,64.35
2022-12-31T15:06:22.813Z,64.54
2022-12-31T15:09:08.702Z,65.31
2022-12-31T15:12:06.374Z,66.27
2022-12-31T15:14:37.383Z,66.16
2022-12-31T15:17:26.622Z,66.59
2022-12-31T15:20:31.591Z,67.04
2022-12-31T15:22:58.731Z,66.74
2022-12-31T15:25:40.829Z,67.43
2022-12-31T15:28:29.166Z,67.65
2022-12-31T15:31:03.541Z,67.77
2022-12-31T15:33:53.401Z,68.66
2022-12-31T15:36:22.764Z,68.51
2022-12-31T15:38:50.460Z,68.82
2022-12-31T15:41:28.093Z,68.84
2022-12-31T15:43:57.666Z,69.74
2022-12-31T15:46:29.344Z,69.78
2022-12-31T15:49:05.153Z,70.00
2022-12-31T15:51:46.861Z,69.91
2022-12-31T15:54:24.237Z,71.12
2022-12-31T15:56:53.140Z,70.31
2022-12-31T15:59:21.797Z,69.81
2022-12-31T16:01:48.764Z,69.99
2022-12-31T16:04:27.670Z,69.34
2022-12-31T16:06:57.724Z,69.46
2022-12-31T16:09:31.264Z,68.79
2022-12-31T16:11:59.399Z,69.14
2022-12-31T16:14:35.207Z,68.59
2022-12-31T16:17:02.390Z,67.92
2022-12-31T16:19:41.950Z,68.94
2022-12-31T16:22:14.576Z,67.93
2022-12-31T16:25:02.828Z,67.59
2022-12-31T16:27:29.742Z,67.77
2022-12-31T16:30:08.421Z,63.20
2022-12-31T16:32:37.830Z,61.35
2022-12-31T16:35:23.615Z,59.27
2022-12-31T16:38:14.158Z,57.85
2022-12-31T16:40:43.601Z,60.14
2022-12-31T16:43:26.036Z,61.35
2022-12-31T16:45:54.994Z,61.28
2022-12-31T16:48:21.541Z,61.93
2022-12-31T16:50:52.719Z,61.91
2022-12-31T16:53:26.077Z,62.56
2022-12-31T16:56:01.531Z,61.28
2022-12-31T16:58:34.725Z,61.37
2022-12-31T17:01:16.422Z,61.60
2022-12-31T17:03:47.361Z,61.91
2022-12-31T17:06:18.874Z,62.51
2022-12-31T17:09:04.928Z,61.12
2022-12-31T17:11:33.809Z,61.81
2022-12-31T17:14:06.760Z,61.47
2022-12-31T17:17:04.973Z,61.87
2022-12-31T17:19:33.653Z,60.09
2022-12-31T17:22:00.967Z,61.14
2022-12-31T17:24:27.805Z,61.39
2022-12-31T17:26:54.419Z,61.05
2022-12-31T17:29:26.444Z,60.79
2022-12-31T17:32:00.451Z,60.56
2022-12-31T17:34:31.651Z,61.18
2022-12-31T17:37:00.221Z,61.03
2022-12-31T17:39:38.646Z,58.77
2022-12-31T17:42:05.277Z,57.60
2022-12-31T17:44:34.093Z,58.53
2022-12-31T17:47:02.653Z,60.52
2022-12-31T17:49:30.940Z,60.57
2022-12-31T17:51:57.640Z,60.60
2022-12-31T17:54:24.179Z,59.39
2022-12-31T17:56:52.607Z,57.87
2022-12-31T17:59:23.104Z,57.89
2022-12-31T18:01:49.921Z,58.07
2022-12-31T18:04:18.413Z,59.80
2022-12-31T18:06:45.325Z,59.47
2022-12-31T18:09:11.919Z,58.65
2022-12-31T18:11:40.134Z,59.19
2022-12-31T18:14:07.194Z,59.22
2022-12-31T18:16:34.183Z,59.75
2022-12-31T18:19:01.215Z,59.55
2022-12-31T18:21:32.398Z,59.34
2022-12-31T18:26:27.349Z,58.08
2022-12-31T18:28:53.954Z,54.92
2022-12-31T18:31:27.194Z,54.42
2022-12-31T18:33:55.945Z,55.76
2022-12-31T18:36:23.736Z,56.88
2022-12-31T18:38:50.507Z,56.35
2022-12-31T18:41:20.823Z,56.90
2022-12-31T18:43:47.766Z,55.59
2022-12-31T18:46:17.854Z,56.51
2022-12-31T18:48:44.464Z,57.88
2022-12-31T18:51:17.275Z,56.66
2022-12-31T18:53:44.517Z,54.37
2022-12-31T18:56:18.061Z,53.56
2022-12-31T18:58:45.420Z,54.84
2022-12-31T19:01:29.858Z,55.74
2022-12-31T19:03:58.932Z,56.56
2022-12-31T19:06:26.551Z,56.53
2022-12-31T19:08:53.102Z,54.67
2022-12-31T19:11:20.116Z,56.31
2022-12-31T19:13:47.487Z,56.56
2022-12-31T19:16:14.251Z,57.58
2022-12-31T19:18:41.786Z,57.91
2022-12-31T19:21:17.267Z,57.72
2022-12-31T19:23:44.540Z,56.70
2022-12-31T19:26:20.154Z,56.04
2022-12-31T19:28:47.494Z,56.91
2022-12-31T19:31:14.601Z,57.51
2022-12-31T19:33:41.318Z,57.75
2022-12-31T19:36:14.685Z,59.09
2022-12-31T19:38:41.199Z,58.33
2022-12-31T19:41:15.013Z,59.35
2022-12-31T19:43:41.527Z,59.10
2022-12-31T19:46:12.617Z,59.34
2022-12-31T19:48:39.198Z,59.84
2022-12-31T19:51:09.907Z,60.62
2022-12-31T19:53:36.400Z,60.23
2022-12-31T19:56:03.407Z,60.55
2022-12-31T19:58:29.932Z,60.83
2022-12-31T20:01:02.439Z,61.14
2022-12-31T20:03:31.048Z,61.30
2022-12-31T20:06:09.511Z,60.63
2022-12-31T20:08:37.967Z,58.63
2022-12-31T20:11:11.882Z,57.88
2022-12-31T20:13:39.304Z,57.65
2022-12-31T20:16:07.924Z,58.63
2022-12-31T20:18:37.343Z,60.04
2022-12-31T20:21:04.620Z,59.73
2022-12-31T20:23:34.971Z,60.52
2022-12-31T20:26:02.030Z,58.52
2022-12-31T20:28:29.712Z,58.01
2022-12-31T20:30:56.329Z,58.83
2022-12-31T20:33:23.178Z,58.75
2022-12-31T20:35:49.877Z,59.57
2022-12-31T20:38:16.511Z,61.02
2022-12-31T20:40:46.639Z,60.29
2022-12-31T20:43:14.024Z,59.97
2022-12-31T20:45:41.728Z,60.45
2022-12-31T20:48:08.308Z,59.20
2022-12-31T20:50:34.877Z,59.36
2022-12-31T20:53:01.948Z,60.04
2022-12-31T20:55:30.650Z,60.00
2022-12-31T20:57:58.506Z,60.98
2022-12-31T21:00:25.007Z,60.81
2022-12-31T21:02:57.899Z,61.71
2022-12-31T21:05:31.026Z,61.88
2022-12-31T21:07:57.676Z,61.75
2022-12-31T21:10:24.193Z,62.82
2022-12-31T21:12:53.532Z,61.96
2022-12-31T21:15:21.407Z,62.14
2022-12-31T21:17:48.029Z,62.64
2022-12-31T21:20:14.537Z,63.01
2022-12-31T21:22:41.129Z,63.04
2022-12-31T21:25:07.861Z,62.94
2022-12-31T21:27:35.564Z,63.32
2022-12-31T21:30:18.238Z,63.33
2022-12-31T21:32:45.752Z,61.97
2022-12-31T21:35:42.240Z,63.78
2022-12-31T21:38:03.374Z,62.74
2022-12-31T21:40:30.866Z,62.91
2022-12-31T21:42:57.842Z,61.98
2022-12-31T21:45:24.443Z,60.97
2022-12-31T21:48:09.759Z,59.90
2022-12-31T21:50:36.267Z,60.17
2022-12-31T21:53:06.123Z,60.57
2022-12-31T21:55:51.339Z,60.21
2022-12-31T21:58:27.055Z,59.28
2022-12-31T22:01:13.681Z,60.05
2022-12-31T22:03:40.710Z,60.27
2022-12-31T22:06:13.417Z,60.31
2022-12-31T22:08:45.084Z,57.37
2022-12-31T22:11:12.928Z,56.48
2022-12-31T22:13:40.123Z,57.38
2022-12-31T22:16:07.750Z,54.88
2022-12-31T22:18:38.716Z,55.70
2022-12-31T22:21:18.242Z,56.49
2022-12-31T22:23:48.128Z,57.72
2022-12-31T22:26:16.353Z,57.89
2022-12-31T22:28:44.554Z,58.31
2022-12-31T22:31:19.950Z,57.43
2022-12-31T22:33:46.950Z,57.93
2022-12-31T22:36:16.513Z,57.82
2022-12-31T22:38:43.678Z,57.61
2022-12-31T22:41:12.962Z,57.98
2022-12-31T22:43:42.778Z,58.51
2022-12-31T22:46:12.771Z,58.55
2022-12-31T22:48:39.904Z,58.23
2022-12-31T22:51:07.729Z,57.50
2022-12-31T22:53:34.284Z,59.19
2022-12-31T22:56:00.981Z,58.47
2022-12-31T22:58:27.602Z,58.45
2022-12-31T23:00:54.273Z,59.43
2022-12-31T23:03:20.974Z,57.43
2022-12-31T23:05:51.776Z,57.78
2022-12-31T23:08:23.570Z,57.49
2022-12-31T23:11:01.603Z,57.48
2022-12-31T23:14:00.140Z,57.45
2022-12-31T23:16:48.372Z,57.00
2022-12-31T23:19:33.919Z,57.19
2022-12-31T23:22:19.264Z,57.00
2022-12-31T23:24:45.807Z,55.82
2022-12-31T23:27:12.694Z,57.01
2022-12-31T23:29:46.090Z,56.34
2022-12-31T23:32:13.699Z,58.10
2022-12-31T23:34:40.200Z,56.86
2022-12-31T23:37:06.719Z,57.13
2022-12-31T23:39:33.213Z,57.07
2022-12-31T23:42:00.515Z,56.29
2022-12-31T23:44:28.185Z,57.32
2022-12-31T23:46:55.038Z,55.80
2022-12-31T23:49:22.132Z,55.69
2022-12-31T23:51:48.740Z,56.45
2022-12-31T23:54:15.827Z,56.40
2022-12-31T23:56:42.457Z,56.21
2022-12-31T23:59:10.402Z,56.09
